sensor_id;sensor_type;location;lat;lon;timestamp;P1;durP1;ratioP1;P2;durP2;ratioP2
4424;SDS011;2225;53.568;13.266;2022-09-23T00:01:07;6.43;;;2.00;;
4424;SDS011;2225;53.568;13.266;2022-09-23T00:03:38;5.37;;;2.40;;
4424;SDS011;2225;53.568;13.266;2022-09-23T00:06:15;5.30;;;2.30;;
4424;SDS011;2225;53.568;13.266;2022-09-23T00:08:47;7.03;;;2.87;;
4424;SDS011;2225;53.568;13.266;2022-09-23T00:11:16;5.20;;;1.90;;
4424;SDS011;2225;53.568;13.266;2022-09-23T00:13:49;7.83;;;2.33;;
4424;SDS011;2225;53.568;13.266;2022-09-23T00:16:27;7.33;;;2.40;;
4424;SDS011;2225;53.568;13.266;2022-09-23T00:18:57;6.07;;;2.27;;
4424;SDS011;2225;53.568;13.266;2022-09-23T00:21:28;4.57;;;2.47;;
4424;SDS011;2225;53.568;13.266;2022-09-23T00:23:55;6.30;;;2.60;;
4424;SDS011;2225;53.568;13.266;2022-09-23T00:26:22;5.67;;;2.27;;
4424;SDS011;2225;53.568;13.266;2022-09-23T00:28:49;4.27;;;1.97;;
4424;SDS011;2225;53.568;13.266;2022-09-23T00:31:18;4.80;;;2.13;;
4424;SDS011;2225;53.568;13.266;2022-09-23T00:33:52;4.93;;;1.93;;
4424;SDS011;2225;53.568;13.266;2022-09-23T00:36:20;4.63;;;2.17;;
4424;SDS011;2225;53.568;13.266;2022-09-23T00:38:47;4.40;;;2.20;;
4424;SDS011;2225;53.568;13.266;2022-09-23T00:41:14;12.43;;;2.50;;
4424;SDS011;2225;53.568;13.266;2022-09-23T00:43:55;6.57;;;1.90;;
4424;SDS011;2225;53.568;13.266;2022-09-23T00:46:27;4.80;;;2.13;;
4424;SDS011;2225;53.568;13.266;2022-09-23T00:49:07;11.40;;;1.93;;
4424;SDS011;2225;53.568;13.266;2022-09-23T00:52:06;3.63;;;1.73;;
4424;SDS011;2225;53.568;13.266;2022-09-23T00:54:40;6.00;;;2.10;;
4424;SDS011;2225;53.568;13.266;2022-09-23T00:57:11;4.80;;;1.73;;
4424;SDS011;2225;53.568;13.266;2022-09-23T00:59:41;4.90;;;2.43;;
4424;SDS011;2225;53.568;13.266;2022-09-23T01:02:09;4.40;;;2.10;;
4424;SDS011;2225;53.568;13.266;2022-09-23T01:04:39;6.23;;;2.00;;
4424;SDS011;2225;53.568;13.266;2022-09-23T01:07:06;13.40;;;2.00;;
4424;SDS011;2225;53.568;13.266;2022-09-23T01:09:33;3.73;;;1.93;;
4424;SDS011;2225;53.568;13.266;2022-09-23T01:15:09;5.93;;;1.70;;
4424;SDS011;2225;53.568;13.266;2022-09-23T01:20:46;5.87;;;2.07;;
4424;SDS011;2225;53.568;13.266;2022-09-23T01:37:46;4.17;;;2.00;;
4424;SDS011;2225;53.568;13.266;2022-09-23T01:43:43;7.70;;;2.30;;
4424;SDS011;2225;53.568;13.266;2022-09-23T01:46:30;4.77;;;2.20;;
4424;SDS011;2225;53.568;13.266;2022-09-23T01:49:07;5.10;;;2.20;;
4424;SDS011;2225;53.568;13.266;2022-09-23T01:51:42;5.07;;;2.30;;
4424;SDS011;2225;53.568;13.266;2022-09-23T01:54:17;5.60;;;2.60;;
4424;SDS011;2225;53.568;13.266;2022-09-23T01:56:53;4.67;;;1.80;;
4424;SDS011;2225;53.568;13.266;2022-09-23T01:59:39;5.57;;;2.30;;
4424;SDS011;2225;53.568;13.266;2022-09-23T02:02:20;3.70;;;1.90;;
4424;SDS011;2225;53.568;13.266;2022-09-23T02:05:06;4.00;;;1.90;;
4424;SDS011;2225;53.568;13.266;2022-09-23T02:07:41;5.40;;;2.10;;
4424;SDS011;2225;53.568;13.266;2022-09-23T02:12:51;4.33;;;2.10;;
4424;SDS011;2225;53.568;13.266;2022-09-23T02:15:31;7.00;;;1.80;;
4424;SDS011;2225;53.568;13.266;2022-09-23T02:18:21;3.40;;;1.60;;
4424;SDS011;2225;53.568;13.266;2022-09-23T02:20:53;4.40;;;1.77;;
4424;SDS011;2225;53.568;13.266;2022-09-23T02:23:26;7.70;;;1.33;;
4424;SDS011;2225;53.568;13.266;2022-09-23T02:29:03;3.90;;;1.77;;
4424;SDS011;2225;53.568;13.266;2022-09-23T02:31:57;4.47;;;1.60;;
4424;SDS011;2225;53.568;13.266;2022-09-23T02:40:55;4.80;;;2.00;;
4424;SDS011;2225;53.568;13.266;2022-09-23T02:43:48;4.60;;;2.00;;
4424;SDS011;2225;53.568;13.266;2022-09-23T02:46:25;6.80;;;1.80;;
4424;SDS011;2225;53.568;13.266;2022-09-23T02:51:22;3.70;;;1.57;;
4424;SDS011;2225;53.568;13.266;2022-09-23T02:53:52;5.13;;;1.47;;
4424;SDS011;2225;53.568;13.266;2022-09-23T02:56:21;5.77;;;1.60;;
4424;SDS011;2225;53.568;13.266;2022-09-23T02:58:50;4.33;;;2.07;;
4424;SDS011;2225;53.568;13.266;2022-09-23T03:01:32;5.90;;;1.70;;
4424;SDS011;2225;53.568;13.266;2022-09-23T03:04:34;4.37;;;1.53;;
4424;SDS011;2225;53.568;13.266;2022-09-23T03:07:35;6.60;;;2.10;;
4424;SDS011;2225;53.568;13.266;2022-09-23T03:10:21;5.43;;;2.13;;
4424;SDS011;2225;53.568;13.266;2022-09-23T03:13:03;5.63;;;2.37;;
4424;SDS011;2225;53.568;13.266;2022-09-23T03:18:48;6.07;;;2.50;;
4424;SDS011;2225;53.568;13.266;2022-09-23T03:21:24;7.27;;;2.53;;
4424;SDS011;2225;53.568;13.266;2022-09-23T03:24:02;9.03;;;2.77;;
4424;SDS011;2225;53.568;13.266;2022-09-23T03:26:33;14.83;;;2.33;;
4424;SDS011;2225;53.568;13.266;2022-09-23T03:29:03;16.70;;;3.00;;
4424;SDS011;2225;53.568;13.266;2022-09-23T03:31:34;6.20;;;2.67;;
4424;SDS011;2225;53.568;13.266;2022-09-23T03:34:10;5.60;;;2.00;;
4424;SDS011;2225;53.568;13.266;2022-09-23T03:37:07;7.87;;;2.20;;
4424;SDS011;2225;53.568;13.266;2022-09-23T03:39:41;4.93;;;1.60;;
4424;SDS011;2225;53.568;13.266;2022-09-23T03:42:24;6.03;;;1.80;;
4424;SDS011;2225;53.568;13.266;2022-09-23T03:44:55;7.10;;;2.20;;
4424;SDS011;2225;53.568;13.266;2022-09-23T03:47:24;3.87;;;1.60;;
4424;SDS011;2225;53.568;13.266;2022-09-23T03:49:53;9.13;;;1.80;;
4424;SDS011;2225;53.568;13.266;2022-09-23T03:52:22;6.00;;;3.40;;
4424;SDS011;2225;53.568;13.266;2022-09-23T03:54:50;4.67;;;2.30;;
4424;SDS011;2225;53.568;13.266;2022-09-23T03:57:18;3.13;;;1.30;;
4424;SDS011;2225;53.568;13.266;2022-09-23T03:59:47;4.20;;;1.70;;
4424;SDS011;2225;53.568;13.266;2022-09-23T04:02:16;3.60;;;1.60;;
4424;SDS011;2225;53.568;13.266;2022-09-23T04:04:44;5.07;;;1.50;;
4424;SDS011;2225;53.568;13.266;2022-09-23T04:07:11;4.50;;;1.93;;
4424;SDS011;2225;53.568;13.266;2022-09-23T04:09:39;5.13;;;1.50;;
4424;SDS011;2225;53.568;13.266;2022-09-23T04:12:06;4.90;;;2.13;;
4424;SDS011;2225;53.568;13.266;2022-09-23T04:14:34;5.10;;;2.40;;
4424;SDS011;2225;53.568;13.266;2022-09-23T04:17:01;3.43;;;1.57;;
4424;SDS011;2225;53.568;13.266;2022-09-23T04:19:27;7.03;;;2.00;;
4424;SDS011;2225;53.568;13.266;2022-09-23T04:21:54;3.20;;;1.50;;
4424;SDS011;2225;53.568;13.266;2022-09-23T04:24:21;4.20;;;1.90;;
4424;SDS011;2225;53.568;13.266;2022-09-23T04:26:49;8.10;;;3.80;;
4424;SDS011;2225;53.568;13.266;2022-09-23T04:29:22;9.57;;;4.63;;
4424;SDS011;2225;53.568;13.266;2022-09-23T04:31:49;10.83;;;5.90;;
4424;SDS011;2225;53.568;13.266;2022-09-23T04:34:17;10.77;;;5.07;;
4424;SDS011;2225;53.568;13.266;2022-09-23T04:36:44;8.60;;;4.40;;
4424;SDS011;2225;53.568;13.266;2022-09-23T04:39:13;8.77;;;3.90;;
4424;SDS011;2225;53.568;13.266;2022-09-23T04:41:41;7.63;;;3.30;;
4424;SDS011;2225;53.568;13.266;2022-09-23T04:44:10;4.80;;;2.13;;
4424;SDS011;2225;53.568;13.266;2022-09-23T04:46:39;6.77;;;2.00;;
4424;SDS011;2225;53.568;13.266;2022-09-23T04:49:07;3.70;;;2.00;;
4424;SDS011;2225;53.568;13.266;2022-09-23T04:51:34;4.17;;;2.03;;
4424;SDS011;2225;53.568;13.266;2022-09-23T04:54:01;4.63;;;2.10;;
4424;SDS011;2225;53.568;13.266;2022-09-23T04:56:28;4.40;;;1.60;;
4424;SDS011;2225;53.568;13.266;2022-09-23T04:58:58;6.23;;;2.10;;
4424;SDS011;2225;53.568;13.266;2022-09-23T05:01:28;5.47;;;2.03;;
4424;SDS011;2225;53.568;13.266;2022-09-23T05:04:05;4.40;;;2.20;;
4424;SDS011;2225;53.568;13.266;2022-09-23T05:06:35;6.87;;;2.60;;
4424;SDS011;2225;53.568;13.266;2022-09-23T05:09:05;8.77;;;2.60;;
4424;SDS011;2225;53.568;13.266;2022-09-23T05:11:34;4.27;;;2.50;;
4424;SDS011;2225;53.568;13.266;2022-09-23T05:14:01;5.47;;;2.87;;
4424;SDS011;2225;53.568;13.266;2022-09-23T05:16:28;5.13;;;2.90;;
4424;SDS011;2225;53.568;13.266;2022-09-23T05:18:55;7.90;;;3.23;;
4424;SDS011;2225;53.568;13.266;2022-09-23T05:21:23;11.00;;;3.50;;
4424;SDS011;2225;53.568;13.266;2022-09-23T05:23:54;8.90;;;3.80;;
4424;SDS011;2225;53.568;13.266;2022-09-23T05:26:24;31.47;;;4.37;;
4424;SDS011;2225;53.568;13.266;2022-09-23T05:28:54;12.90;;;4.83;;
4424;SDS011;2225;53.568;13.266;2022-09-23T05:31:25;12.40;;;4.63;;
4424;SDS011;2225;53.568;13.266;2022-09-23T05:33:58;21.23;;;4.63;;
4424;SDS011;2225;53.568;13.266;2022-09-23T05:36:30;16.70;;;5.00;;
4424;SDS011;2225;53.568;13.266;2022-09-23T05:39:04;9.47;;;3.60;;
4424;SDS011;2225;53.568;13.266;2022-09-23T05:41:32;12.97;;;2.80;;
4424;SDS011;2225;53.568;13.266;2022-09-23T05:43:59;9.17;;;3.30;;
4424;SDS011;2225;53.568;13.266;2022-09-23T05:46:28;9.77;;;2.87;;
4424;SDS011;2225;53.568;13.266;2022-09-23T05:48:56;7.97;;;2.97;;
4424;SDS011;2225;53.568;13.266;2022-09-23T05:51:28;12.70;;;2.90;;
4424;SDS011;2225;53.568;13.266;2022-09-23T05:53:57;10.33;;;3.27;;
4424;SDS011;2225;53.568;13.266;2022-09-23T05:56:26;9.03;;;2.20;;
4424;SDS011;2225;53.568;13.266;2022-09-23T05:58:54;7.73;;;2.70;;
4424;SDS011;2225;53.568;13.266;2022-09-23T06:01:24;7.13;;;2.90;;
4424;SDS011;2225;53.568;13.266;2022-09-23T06:03:54;4.93;;;2.33;;
4424;SDS011;2225;53.568;13.266;2022-09-23T06:06:25;10.43;;;3.40;;
4424;SDS011;2225;53.568;13.266;2022-09-23T06:08:58;11.50;;;3.07;;
4424;SDS011;2225;53.568;13.266;2022-09-23T06:11:28;7.87;;;3.53;;
4424;SDS011;2225;53.568;13.266;2022-09-23T06:13:57;8.13;;;3.53;;
4424;SDS011;2225;53.568;13.266;2022-09-23T06:16:29;8.97;;;4.00;;
4424;SDS011;2225;53.568;13.266;2022-09-23T06:18:58;11.23;;;4.10;;
4424;SDS011;2225;53.568;13.266;2022-09-23T06:21:32;10.43;;;4.13;;
4424;SDS011;2225;53.568;13.266;2022-09-23T06:24:02;12.03;;;3.40;;
4424;SDS011;2225;53.568;13.266;2022-09-23T06:26:30;5.90;;;2.90;;
4424;SDS011;2225;53.568;13.266;2022-09-23T06:29:00;10.90;;;3.80;;
4424;SDS011;2225;53.568;13.266;2022-09-23T06:31:28;7.00;;;3.90;;
4424;SDS011;2225;53.568;13.266;2022-09-23T06:33:55;14.90;;;4.20;;
4424;SDS011;2225;53.568;13.266;2022-09-23T06:36:36;10.17;;;4.23;;
4424;SDS011;2225;53.568;13.266;2022-09-23T06:39:10;9.70;;;4.00;;
4424;SDS011;2225;53.568;13.266;2022-09-23T06:41:41;17.30;;;4.73;;
4424;SDS011;2225;53.568;13.266;2022-09-23T06:44:12;16.63;;;5.20;;
4424;SDS011;2225;53.568;13.266;2022-09-23T06:46:39;10.20;;;4.60;;
4424;SDS011;2225;53.568;13.266;2022-09-23T06:49:07;11.17;;;4.23;;
4424;SDS011;2225;53.568;13.266;2022-09-23T06:51:34;12.73;;;3.90;;
4424;SDS011;2225;53.568;13.266;2022-09-23T06:54:00;13.50;;;4.37;;
4424;SDS011;2225;53.568;13.266;2022-09-23T06:56:28;10.97;;;3.97;;
4424;SDS011;2225;53.568;13.266;2022-09-23T06:59:03;15.83;;;4.00;;
4424;SDS011;2225;53.568;13.266;2022-09-23T07:01:29;10.20;;;3.30;;
4424;SDS011;2225;53.568;13.266;2022-09-23T07:03:56;11.00;;;3.20;;
4424;SDS011;2225;53.568;13.266;2022-09-23T07:06:24;14.13;;;3.80;;
4424;SDS011;2225;53.568;13.266;2022-09-23T07:08:51;14.73;;;4.67;;
4424;SDS011;2225;53.568;13.266;2022-09-23T07:11:18;7.30;;;3.47;;
4424;SDS011;2225;53.568;13.266;2022-09-23T07:13:47;13.00;;;3.93;;
4424;SDS011;2225;53.568;13.266;2022-09-23T07:16:14;9.67;;;4.03;;
4424;SDS011;2225;53.568;13.266;2022-09-23T07:18:41;10.70;;;3.90;;
4424;SDS011;2225;53.568;13.266;2022-09-23T07:21:09;8.43;;;3.40;;
4424;SDS011;2225;53.568;13.266;2022-09-23T07:23:41;10.27;;;4.40;;
4424;SDS011;2225;53.568;13.266;2022-09-23T07:26:08;5.80;;;3.17;;
4424;SDS011;2225;53.568;13.266;2022-09-23T07:28:36;12.90;;;3.60;;
4424;SDS011;2225;53.568;13.266;2022-09-23T07:31:07;8.60;;;4.10;;
4424;SDS011;2225;53.568;13.266;2022-09-23T07:33:37;7.63;;;3.93;;
4424;SDS011;2225;53.568;13.266;2022-09-23T07:36:08;8.57;;;3.67;;
4424;SDS011;2225;53.568;13.266;2022-09-23T07:38:39;10.57;;;3.63;;
4424;SDS011;2225;53.568;13.266;2022-09-23T07:41:11;7.73;;;3.70;;
4424;SDS011;2225;53.568;13.266;2022-09-23T07:43:42;10.77;;;3.77;;
4424;SDS011;2225;53.568;13.266;2022-09-23T07:46:11;6.37;;;3.33;;
4424;SDS011;2225;53.568;13.266;2022-09-23T07:48:42;5.87;;;2.70;;
4424;SDS011;2225;53.568;13.266;2022-09-23T07:51:18;6.60;;;2.73;;
4424;SDS011;2225;53.568;13.266;2022-09-23T07:54:02;7.47;;;2.80;;
4424;SDS011;2225;53.568;13.266;2022-09-23T07:56:35;6.63;;;2.73;;
4424;SDS011;2225;53.568;13.266;2022-09-23T07:59:04;10.03;;;2.57;;
4424;SDS011;2225;53.568;13.266;2022-09-23T08:01:35;7.20;;;2.40;;
4424;SDS011;2225;53.568;13.266;2022-09-23T08:04:11;7.00;;;2.20;;
4424;SDS011;2225;53.568;13.266;2022-09-23T08:06:42;4.93;;;2.30;;
4424;SDS011;2225;53.568;13.266;2022-09-23T08:09:15;6.00;;;2.53;;
4424;SDS011;2225;53.568;13.266;2022-09-23T08:11:43;6.47;;;2.93;;
4424;SDS011;2225;53.568;13.266;2022-09-23T08:14:11;6.57;;;2.50;;
4424;SDS011;2225;53.568;13.266;2022-09-23T08:16:40;7.60;;;2.60;;
4424;SDS011;2225;53.568;13.266;2022-09-23T08:19:07;6.33;;;2.50;;
4424;SDS011;2225;53.568;13.266;2022-09-23T08:21:35;7.30;;;2.60;;
4424;SDS011;2225;53.568;13.266;2022-09-23T08:24:04;5.00;;;2.10;;
4424;SDS011;2225;53.568;13.266;2022-09-23T08:26:33;7.33;;;2.80;;
4424;SDS011;2225;53.568;13.266;2022-09-23T08:29:00;7.50;;;2.23;;
4424;SDS011;2225;53.568;13.266;2022-09-23T08:31:27;6.23;;;2.47;;
4424;SDS011;2225;53.568;13.266;2022-09-23T08:33:54;4.40;;;1.80;;
4424;SDS011;2225;53.568;13.266;2022-09-23T08:36:23;5.43;;;2.00;;
4424;SDS011;2225;53.568;13.266;2022-09-23T08:38:50;7.37;;;2.03;;
4424;SDS011;2225;53.568;13.266;2022-09-23T08:41:30;7.67;;;2.43;;
4424;SDS011;2225;53.568;13.266;2022-09-23T08:44:11;7.10;;;2.40;;
4424;SDS011;2225;53.568;13.266;2022-09-23T08:49:27;11.10;;;5.50;;
4424;SDS011;2225;53.568;13.266;2022-09-23T08:52:05;9.00;;;3.90;;
4424;SDS011;2225;53.568;13.266;2022-09-23T08:54:48;30.40;;;17.83;;
4424;SDS011;2225;53.568;13.266;2022-09-23T08:57:29;7.90;;;4.67;;
4424;SDS011;2225;53.568;13.266;2022-09-23T09:00:39;7.07;;;2.37;;
4424;SDS011;2225;53.568;13.266;2022-09-23T09:03:16;17.13;;;7.10;;
4424;SDS011;2225;53.568;13.266;2022-09-23T09:05:49;12.80;;;7.27;;
4424;SDS011;2225;53.568;13.266;2022-09-23T09:08:21;5.50;;;2.30;;
4424;SDS011;2225;53.568;13.266;2022-09-23T09:10:57;4.33;;;1.63;;
4424;SDS011;2225;53.568;13.266;2022-09-23T09:13:33;5.40;;;1.77;;
4424;SDS011;2225;53.568;13.266;2022-09-23T09:16:14;6.60;;;2.53;;
4424;SDS011;2225;53.568;13.266;2022-09-23T09:19:38;7.33;;;2.07;;
4424;SDS011;2225;53.568;13.266;2022-09-23T09:22:41;4.30;;;1.63;;
4424;SDS011;2225;53.568;13.266;2022-09-23T09:25:27;4.20;;;1.57;;
4424;SDS011;2225;53.568;13.266;2022-09-23T09:31:09;4.40;;;1.73;;
4424;SDS011;2225;53.568;13.266;2022-09-23T09:33:59;14.43;;;1.93;;
4424;SDS011;2225;53.568;13.266;2022-09-23T09:39:36;6.97;;;1.70;;
4424;SDS011;2225;53.568;13.266;2022-09-23T09:42:03;7.60;;;1.50;;
4424;SDS011;2225;53.568;13.266;2022-09-23T09:52:44;4.20;;;1.33;;
4424;SDS011;2225;53.568;13.266;2022-09-23T09:57:41;6.40;;;2.00;;
4424;SDS011;2225;53.568;13.266;2022-09-23T10:02:57;8.23;;;2.17;;
4424;SDS011;2225;53.568;13.266;2022-09-23T10:11:01;4.80;;;1.83;;
4424;SDS011;2225;53.568;13.266;2022-09-23T10:13:28;4.43;;;1.63;;
4424;SDS011;2225;53.568;13.266;2022-09-23T10:15:57;5.60;;;1.93;;
4424;SDS011;2225;53.568;13.266;2022-09-23T10:18:46;20.47;;;2.37;;
4424;SDS011;2225;53.568;13.266;2022-09-23T10:21:16;4.73;;;1.80;;
4424;SDS011;2225;53.568;13.266;2022-09-23T10:23:54;5.17;;;1.80;;
4424;SDS011;2225;53.568;13.266;2022-09-23T10:26:42;4.43;;;1.83;;
4424;SDS011;2225;53.568;13.266;2022-09-23T10:29:30;4.40;;;1.70;;
4424;SDS011;2225;53.568;13.266;2022-09-23T10:32:25;4.50;;;1.70;;
4424;SDS011;2225;53.568;13.266;2022-09-23T10:34:57;5.07;;;1.93;;
4424;SDS011;2225;53.568;13.266;2022-09-23T10:40:29;5.13;;;1.77;;
4424;SDS011;2225;53.568;13.266;2022-09-23T10:43:27;6.97;;;1.97;;
4424;SDS011;2225;53.568;13.266;2022-09-23T10:46:48;6.47;;;1.40;;
4424;SDS011;2225;53.568;13.266;2022-09-23T10:49:44;5.57;;;1.67;;
4424;SDS011;2225;53.568;13.266;2022-09-23T10:55:53;5.20;;;1.80;;
4424;SDS011;2225;53.568;13.266;2022-09-23T11:05:33;4.97;;;1.53;;
4424;SDS011;2225;53.568;13.266;2022-09-23T11:08:32;4.60;;;1.83;;
4424;SDS011;2225;53.568;13.266;2022-09-23T11:14:44;4.47;;;1.53;;
4424;SDS011;2225;53.568;13.266;2022-09-23T11:17:35;3.90;;;1.57;;
4424;SDS011;2225;53.568;13.266;2022-09-23T11:20:21;5.97;;;2.37;;
4424;SDS011;2225;53.568;13.266;2022-09-23T11:23:39;5.40;;;1.80;;
4424;SDS011;2225;53.568;13.266;2022-09-23T11:26:22;3.70;;;1.27;;
4424;SDS011;2225;53.568;13.266;2022-09-23T11:29:24;4.43;;;1.60;;
4424;SDS011;2225;53.568;13.266;2022-09-23T11:35:38;6.47;;;1.93;;
4424;SDS011;2225;53.568;13.266;2022-09-23T11:38:19;5.73;;;2.10;;
4424;SDS011;2225;53.568;13.266;2022-09-23T11:40:57;5.13;;;2.10;;
4424;SDS011;2225;53.568;13.266;2022-09-23T11:43:34;6.10;;;2.03;;
4424;SDS011;2225;53.568;13.266;2022-09-23T11:46:19;4.77;;;2.03;;
4424;SDS011;2225;53.568;13.266;2022-09-23T11:52:12;6.27;;;1.83;;
4424;SDS011;2225;53.568;13.266;2022-09-23T11:57:49;4.37;;;2.00;;
4424;SDS011;2225;53.568;13.266;2022-09-23T12:00:21;3.80;;;1.47;;
4424;SDS011;2225;53.568;13.266;2022-09-23T12:05:33;3.90;;;1.50;;
4424;SDS011;2225;53.568;13.266;2022-09-23T12:08:29;4.17;;;1.47;;
4424;SDS011;2225;53.568;13.266;2022-09-23T12:13:48;7.60;;;1.50;;
4424;SDS011;2225;53.568;13.266;2022-09-23T12:25:46;4.43;;;1.57;;
4424;SDS011;2225;53.568;13.266;2022-09-23T12:28:23;4.67;;;1.40;;
4424;SDS011;2225;53.568;13.266;2022-09-23T12:30:56;4.50;;;1.33;;
4424;SDS011;2225;53.568;13.266;2022-09-23T12:33:26;8.80;;;1.50;;
4424;SDS011;2225;53.568;13.266;2022-09-23T12:36:06;4.30;;;1.30;;
4424;SDS011;2225;53.568;13.266;2022-09-23T12:38:39;4.53;;;1.47;;
4424;SDS011;2225;53.568;13.266;2022-09-23T12:43:55;4.67;;;1.70;;
4424;SDS011;2225;53.568;13.266;2022-09-23T12:46:44;5.37;;;1.50;;
4424;SDS011;2225;53.568;13.266;2022-09-23T12:49:22;3.90;;;1.40;;
4424;SDS011;2225;53.568;13.266;2022-09-23T12:54:39;4.30;;;1.30;;
4424;SDS011;2225;53.568;13.266;2022-09-23T12:57:09;3.93;;;1.37;;
4424;SDS011;2225;53.568;13.266;2022-09-23T12:59:53;5.00;;;1.40;;
4424;SDS011;2225;53.568;13.266;2022-09-23T13:02:39;4.73;;;1.70;;
4424;SDS011;2225;53.568;13.266;2022-09-23T13:05:15;4.30;;;1.60;;
4424;SDS011;2225;53.568;13.266;2022-09-23T13:08:11;4.30;;;1.70;;
4424;SDS011;2225;53.568;13.266;2022-09-23T13:10:53;4.50;;;2.00;;
4424;SDS011;2225;53.568;13.266;2022-09-23T13:13:40;4.10;;;1.67;;
4424;SDS011;2225;53.568;13.266;2022-09-23T13:16:28;4.90;;;1.37;;
4424;SDS011;2225;53.568;13.266;2022-09-23T13:19:00;4.37;;;1.40;;
4424;SDS011;2225;53.568;13.266;2022-09-23T13:21:57;5.03;;;1.93;;
4424;SDS011;2225;53.568;13.266;2022-09-23T13:25:07;4.70;;;1.70;;
4424;SDS011;2225;53.568;13.266;2022-09-23T13:27:32;4.00;;;1.67;;
4424;SDS011;2225;53.568;13.266;2022-09-23T13:33:04;5.00;;;1.70;;
4424;SDS011;2225;53.568;13.266;2022-09-23T13:35:42;5.40;;;1.43;;
4424;SDS011;2225;53.568;13.266;2022-09-23T13:38:17;5.07;;;1.67;;
4424;SDS011;2225;53.568;13.266;2022-09-23T13:40:52;4.23;;;1.50;;
4424;SDS011;2225;53.568;13.266;2022-09-23T13:43:36;3.80;;;1.63;;
4424;SDS011;2225;53.568;13.266;2022-09-23T13:46:09;4.67;;;1.77;;
4424;SDS011;2225;53.568;13.266;2022-09-23T13:48:43;16.93;;;1.83;;
4424;SDS011;2225;53.568;13.266;2022-09-23T13:51:15;5.13;;;1.90;;
4424;SDS011;2225;53.568;13.266;2022-09-23T13:53:59;4.47;;;1.40;;
4424;SDS011;2225;53.568;13.266;2022-09-23T13:56:29;7.60;;;1.67;;
4424;SDS011;2225;53.568;13.266;2022-09-23T14:04:42;6.13;;;1.87;;
4424;SDS011;2225;53.568;13.266;2022-09-23T14:07:10;5.50;;;1.60;;
4424;SDS011;2225;53.568;13.266;2022-09-23T14:09:43;4.50;;;1.50;;
4424;SDS011;2225;53.568;13.266;2022-09-23T14:12:13;4.20;;;1.50;;
4424;SDS011;2225;53.568;13.266;2022-09-23T14:14:47;5.10;;;1.80;;
4424;SDS011;2225;53.568;13.266;2022-09-23T14:17:17;4.43;;;1.77;;
4424;SDS011;2225;53.568;13.266;2022-09-23T14:19:48;4.27;;;1.40;;
4424;SDS011;2225;53.568;13.266;2022-09-23T14:22:23;4.40;;;1.70;;
4424;SDS011;2225;53.568;13.266;2022-09-23T14:24:55;7.33;;;2.00;;
4424;SDS011;2225;53.568;13.266;2022-09-23T14:27:26;5.63;;;1.90;;
4424;SDS011;2225;53.568;13.266;2022-09-23T14:30:01;4.83;;;1.50;;
4424;SDS011;2225;53.568;13.266;2022-09-23T14:32:29;6.83;;;2.20;;
4424;SDS011;2225;53.568;13.266;2022-09-23T14:37:31;8.87;;;3.60;;
4424;SDS011;2225;53.568;13.266;2022-09-23T14:42:57;4.30;;;1.70;;
4424;SDS011;2225;53.568;13.266;2022-09-23T14:45:51;8.03;;;2.27;;
4424;SDS011;2225;53.568;13.266;2022-09-23T14:48:23;4.97;;;1.80;;
4424;SDS011;2225;53.568;13.266;2022-09-23T14:51:01;4.53;;;1.90;;
4424;SDS011;2225;53.568;13.266;2022-09-23T14:53:39;5.40;;;2.00;;
4424;SDS011;2225;53.568;13.266;2022-09-23T14:56:13;4.10;;;1.63;;
4424;SDS011;2225;53.568;13.266;2022-09-23T15:03:58;6.23;;;1.83;;
4424;SDS011;2225;53.568;13.266;2022-09-23T15:06:47;5.63;;;1.80;;
4424;SDS011;2225;53.568;13.266;2022-09-23T15:09:32;4.23;;;1.80;;
4424;SDS011;2225;53.568;13.266;2022-09-23T15:12:16;5.83;;;1.70;;
4424;SDS011;2225;53.568;13.266;2022-09-23T15:14:50;9.33;;;2.13;;
4424;SDS011;2225;53.568;13.266;2022-09-23T15:17:26;7.43;;;2.03;;
4424;SDS011;2225;53.568;13.266;2022-09-23T15:20:02;5.20;;;1.90;;
4424;SDS011;2225;53.568;13.266;2022-09-23T15:22:47;7.33;;;1.87;;
4424;SDS011;2225;53.568;13.266;2022-09-23T15:25:29;5.33;;;2.30;;
4424;SDS011;2225;53.568;13.266;2022-09-23T15:30:39;4.93;;;2.23;;
4424;SDS011;2225;53.568;13.266;2022-09-23T15:33:06;5.07;;;2.23;;
4424;SDS011;2225;53.568;13.266;2022-09-23T15:35:37;6.20;;;2.00;;
4424;SDS011;2225;53.568;13.266;2022-09-23T15:38:12;5.63;;;2.50;;
4424;SDS011;2225;53.568;13.266;2022-09-23T15:40:39;8.57;;;2.43;;
4424;SDS011;2225;53.568;13.266;2022-09-23T15:43:17;10.77;;;3.80;;
4424;SDS011;2225;53.568;13.266;2022-09-23T15:45:50;6.13;;;2.90;;
4424;SDS011;2225;53.568;13.266;2022-09-23T15:48:25;6.03;;;2.63;;
4424;SDS011;2225;53.568;13.266;2022-09-23T15:50:57;5.53;;;2.60;;
4424;SDS011;2225;53.568;13.266;2022-09-23T15:53:30;6.37;;;2.47;;
4424;SDS011;2225;53.568;13.266;2022-09-23T15:55:57;5.70;;;2.60;;
4424;SDS011;2225;53.568;13.266;2022-09-23T15:58:25;5.43;;;2.17;;
4424;SDS011;2225;53.568;13.266;2022-09-23T16:00:53;7.77;;;2.50;;
4424;SDS011;2225;53.568;13.266;2022-09-23T16:03:22;7.57;;;2.93;;
4424;SDS011;2225;53.568;13.266;2022-09-23T16:05:54;6.80;;;2.73;;
4424;SDS011;2225;53.568;13.266;2022-09-23T16:08:26;5.87;;;2.60;;
4424;SDS011;2225;53.568;13.266;2022-09-23T16:10:53;9.10;;;3.43;;
4424;SDS011;2225;53.568;13.266;2022-09-23T16:13:21;6.53;;;3.03;;
4424;SDS011;2225;53.568;13.266;2022-09-23T16:15:48;7.47;;;3.17;;
4424;SDS011;2225;53.568;13.266;2022-09-23T16:18:15;7.30;;;3.33;;
4424;SDS011;2225;53.568;13.266;2022-09-23T16:20:42;14.50;;;7.33;;
4424;SDS011;2225;53.568;13.266;2022-09-23T16:23:21;13.57;;;6.70;;
4424;SDS011;2225;53.568;13.266;2022-09-23T16:28:40;9.23;;;3.50;;
4424;SDS011;2225;53.568;13.266;2022-09-23T16:31:08;5.90;;;2.60;;
4424;SDS011;2225;53.568;13.266;2022-09-23T16:33:37;7.37;;;2.80;;
4424;SDS011;2225;53.568;13.266;2022-09-23T16:36:05;12.97;;;7.27;;
4424;SDS011;2225;53.568;13.266;2022-09-23T16:38:54;10.10;;;4.93;;
4424;SDS011;2225;53.568;13.266;2022-09-23T16:41:21;10.93;;;6.43;;
4424;SDS011;2225;53.568;13.266;2022-09-23T16:43:49;9.80;;;3.67;;
4424;SDS011;2225;53.568;13.266;2022-09-23T16:46:17;7.30;;;3.63;;
4424;SDS011;2225;53.568;13.266;2022-09-23T16:48:46;7.40;;;3.40;;
4424;SDS011;2225;53.568;13.266;2022-09-23T16:51:27;8.27;;;4.03;;
4424;SDS011;2225;53.568;13.266;2022-09-23T16:54:04;8.13;;;3.20;;
4424;SDS011;2225;53.568;13.266;2022-09-23T16:56:37;10.17;;;3.40;;
4424;SDS011;2225;53.568;13.266;2022-09-23T16:59:10;9.57;;;2.90;;
4424;SDS011;2225;53.568;13.266;2022-09-23T17:01:39;6.63;;;3.00;;
4424;SDS011;2225;53.568;13.266;2022-09-23T17:04:24;8.03;;;3.10;;
4424;SDS011;2225;53.568;13.266;2022-09-23T17:06:52;6.63;;;3.27;;
4424;SDS011;2225;53.568;13.266;2022-09-23T17:09:21;8.67;;;3.27;;
4424;SDS011;2225;53.568;13.266;2022-09-23T17:11:54;7.47;;;3.33;;
4424;SDS011;2225;53.568;13.266;2022-09-23T17:14:30;9.37;;;3.50;;
4424;SDS011;2225;53.568;13.266;2022-09-23T17:16:57;7.10;;;2.90;;
4424;SDS011;2225;53.568;13.266;2022-09-23T17:19:24;6.50;;;2.50;;
4424;SDS011;2225;53.568;13.266;2022-09-23T17:21:51;7.50;;;3.30;;
4424;SDS011;2225;53.568;13.266;2022-09-23T17:24:18;8.77;;;4.70;;
4424;SDS011;2225;53.568;13.266;2022-09-23T17:26:45;9.27;;;5.47;;
4424;SDS011;2225;53.568;13.266;2022-09-23T17:29:18;15.23;;;6.63;;
4424;SDS011;2225;53.568;13.266;2022-09-23T17:31:45;10.67;;;5.70;;
4424;SDS011;2225;53.568;13.266;2022-09-23T17:34:12;9.60;;;4.67;;
4424;SDS011;2225;53.568;13.266;2022-09-23T17:36:39;10.70;;;4.93;;
4424;SDS011;2225;53.568;13.266;2022-09-23T17:39:06;10.20;;;4.70;;
4424;SDS011;2225;53.568;13.266;2022-09-23T17:41:33;10.57;;;5.43;;
4424;SDS011;2225;53.568;13.266;2022-09-23T17:44:00;15.93;;;5.87;;
4424;SDS011;2225;53.568;13.266;2022-09-23T17:46:27;9.17;;;5.37;;
4424;SDS011;2225;53.568;13.266;2022-09-23T17:48:55;9.70;;;5.17;;
4424;SDS011;2225;53.568;13.266;2022-09-23T17:51:22;14.13;;;6.90;;
4424;SDS011;2225;53.568;13.266;2022-09-23T17:53:50;15.10;;;6.90;;
4424;SDS011;2225;53.568;13.266;2022-09-23T17:56:18;13.93;;;6.97;;
4424;SDS011;2225;53.568;13.266;2022-09-23T17:58:48;14.90;;;7.40;;
4424;SDS011;2225;53.568;13.266;2022-09-23T18:01:16;14.73;;;6.80;;